Prince Rupert Airport
CYPR : rendu visible

Aérodrome :











RETROUVEZ-NOUS SUR...

 
LOGIN :

S'inscrire | Disclaimer

   EN    FR    IT 

 









Légende :    VFR   VFR Marginal   IFR   IFR Intensif   IFR Très Intensif
Visi : 
Plafond : 
>= 8 km
>= 3000ft
5 à 8 km
1000 à 3000 ft
1500m à 5 km
500 à 1000 ft
800 à 1500m
200 à 500 ft
< 800m
< 200 ft
Symboles :   Orages  Brouillard  Fortes neiges  Fortes précipitations  Vent > 20 kt






- Altitude de l'aérodrome : 116 ft
- Code IATA : YPR


CYPR - Prince Rupert

DERNIER METAR :
  • 100800Z AUTO 08009KT 9SM BKN180 BKN200 03/01 A2992 RMK SLP134

METARs EXPIRÉS :
  • 100734Z AUTO 12011KT 9SM CLR 05/01 A2993 RMK SLP138
  • 100700Z AUTO 00000KT 9SM CLR 01/01 A2994 RMK SLP143
  • 100600Z AUTO 06005KT 9SM SCT190 03/01 A2995 RMK SLP143
  • 100500Z AUTO 09006KT 9SM BKN180 BKN200 03/01 A2996 RMK SLP149

TAF TAF CYPR
Valide du 10 à 07h jusqu'au 10 à 19h UTC


100638Z 1007/1019 06005KT P6SM BKN160
FM100900 11010KT P6SM BKN030
FM101500 12010KT P6SM -RA SCT002 BKN030
TEMPO 1015/1019 FEW008 BKN020 RMK FCST BASED ON AUTO OBS. NXT FCST BY 101300Z



MET'MAP, la Météo Aéronautique d'un coup d'oeil ! - Copyright ORBIFLY Décembre 2007 - Disclaimer

ORBIFLY MET'MAP TEAM :

Programmation & Développement : Alexandra Zaïnal
Sur une idée originale de : Baudouin d'Aumeries
Assistance à la programmation : Marc-Olivier Méhu
Soutien technique & logistique : Manuel Goepfert

Contact : metmap@orbifly.com




SOURCES & CREDITS :

   NOAA       Earth
Advisory